sensor_id;sensor_type;location;lat;lon;timestamp;P1;durP1;ratioP1;P2;durP2;ratioP2
33738;SDS011;20063;51.730;11.110;2023-11-21T00:02:14;20.05;;;3.30;;
33738;SDS011;20063;51.730;11.110;2023-11-21T00:04:40;17.77;;;4.18;;
33738;SDS011;20063;51.730;11.110;2023-11-21T00:07:06;21.58;;;3.75;;
33738;SDS011;20063;51.730;11.110;2023-11-21T00:09:32;20.50;;;3.83;;
33738;SDS011;20063;51.730;11.110;2023-11-21T00:11:58;20.00;;;3.35;;
33738;SDS011;20063;51.730;11.110;2023-11-21T00:14:27;17.05;;;3.50;;
33738;SDS011;20063;51.730;11.110;2023-11-21T00:16:53;22.08;;;3.40;;
33738;SDS011;20063;51.730;11.110;2023-11-21T00:19:18;15.98;;;3.28;;
33738;SDS011;20063;51.730;11.110;2023-11-21T00:21:44;13.85;;;3.38;;
33738;SDS011;20063;51.730;11.110;2023-11-21T00:24:10;17.85;;;4.03;;
33738;SDS011;20063;51.730;11.110;2023-11-21T00:26:39;12.15;;;3.45;;
33738;SDS011;20063;51.730;11.110;2023-11-21T00:29:05;13.88;;;3.85;;
33738;SDS011;20063;51.730;11.110;2023-11-21T00:31:33;14.45;;;3.40;;
33738;SDS011;20063;51.730;11.110;2023-11-21T00:33:59;12.93;;;3.13;;
33738;SDS011;20063;51.730;11.110;2023-11-21T00:36:25;18.38;;;4.50;;
33738;SDS011;20063;51.730;11.110;2023-11-21T00:38:51;23.88;;;4.47;;
33738;SDS011;20063;51.730;11.110;2023-11-21T00:41:17;25.00;;;3.20;;
33738;SDS011;20063;51.730;11.110;2023-11-21T00:43:43;14.70;;;3.72;;
33738;SDS011;20063;51.730;11.110;2023-11-21T00:46:09;15.30;;;3.08;;
33738;SDS011;20063;51.730;11.110;2023-11-21T00:48:34;18.90;;;3.85;;
33738;SDS011;20063;51.730;11.110;2023-11-21T00:51:00;19.70;;;3.75;;
33738;SDS011;20063;51.730;11.110;2023-11-21T00:53:26;16.60;;;3.80;;
33738;SDS011;20063;51.730;11.110;2023-11-21T00:55:54;21.23;;;4.05;;
33738;SDS011;20063;51.730;11.110;2023-11-21T00:58:23;31.00;;;4.68;;
33738;SDS011;20063;51.730;11.110;2023-11-21T01:00:49;17.20;;;3.65;;
33738;SDS011;20063;51.730;11.110;2023-11-21T01:03:15;34.65;;;6.47;;
33738;SDS011;20063;51.730;11.110;2023-11-21T01:05:40;19.17;;;4.25;;
33738;SDS011;20063;51.730;11.110;2023-11-21T01:08:06;17.65;;;4.00;;
33738;SDS011;20063;51.730;11.110;2023-11-21T01:10:34;20.50;;;3.97;;
33738;SDS011;20063;51.730;11.110;2023-11-21T01:13:00;22.83;;;5.68;;
33738;SDS011;20063;51.730;11.110;2023-11-21T01:15:26;28.83;;;4.32;;
33738;SDS011;20063;51.730;11.110;2023-11-21T01:17:52;20.13;;;4.03;;
33738;SDS011;20063;51.730;11.110;2023-11-21T01:20:18;16.10;;;3.58;;
33738;SDS011;20063;51.730;11.110;2023-11-21T01:22:43;22.83;;;4.18;;
33738;SDS011;20063;51.730;11.110;2023-11-21T01:25:09;28.95;;;3.78;;
33738;SDS011;20063;51.730;11.110;2023-11-21T01:27:35;26.98;;;4.35;;
33738;SDS011;20063;51.730;11.110;2023-11-21T01:30:04;21.77;;;4.00;;
33738;SDS011;20063;51.730;11.110;2023-11-21T01:32:32;21.42;;;3.75;;
33738;SDS011;20063;51.730;11.110;2023-11-21T01:34:59;18.85;;;4.25;;
33738;SDS011;20063;51.730;11.110;2023-11-21T01:37:25;24.13;;;4.72;;
33738;SDS011;20063;51.730;11.110;2023-11-21T01:39:53;20.20;;;3.78;;
33738;SDS011;20063;51.730;11.110;2023-11-21T01:42:21;23.25;;;4.55;;
33738;SDS011;20063;51.730;11.110;2023-11-21T01:44:47;28.05;;;4.90;;
33738;SDS011;20063;51.730;11.110;2023-11-21T01:47:13;27.73;;;4.35;;
33738;SDS011;20063;51.730;11.110;2023-11-21T01:49:40;24.95;;;4.50;;
33738;SDS011;20063;51.730;11.110;2023-11-21T01:52:10;37.63;;;7.30;;
33738;SDS011;20063;51.730;11.110;2023-11-21T01:54:36;31.27;;;4.93;;
33738;SDS011;20063;51.730;11.110;2023-11-21T01:57:03;25.88;;;4.60;;
33738;SDS011;20063;51.730;11.110;2023-11-21T01:59:34;25.10;;;4.32;;
33738;SDS011;20063;51.730;11.110;2023-11-21T02:02:04;18.55;;;4.28;;
33738;SDS011;20063;51.730;11.110;2023-11-21T02:04:34;35.80;;;5.40;;
33738;SDS011;20063;51.730;11.110;2023-11-21T02:07:01;23.08;;;4.75;;
33738;SDS011;20063;51.730;11.110;2023-11-21T02:09:31;29.00;;;4.95;;
33738;SDS011;20063;51.730;11.110;2023-11-21T02:11:58;32.63;;;5.20;;
33738;SDS011;20063;51.730;11.110;2023-11-21T02:14:25;29.92;;;4.38;;
33738;SDS011;20063;51.730;11.110;2023-11-21T02:16:57;22.55;;;4.35;;
33738;SDS011;20063;51.730;11.110;2023-11-21T02:19:23;34.22;;;4.57;;
33738;SDS011;20063;51.730;11.110;2023-11-21T02:21:50;26.70;;;5.28;;
33738;SDS011;20063;51.730;11.110;2023-11-21T02:24:23;36.92;;;5.43;;
33738;SDS011;20063;51.730;11.110;2023-11-21T02:26:49;27.48;;;5.65;;
33738;SDS011;20063;51.730;11.110;2023-11-21T02:29:19;39.72;;;4.78;;
33738;SDS011;20063;51.730;11.110;2023-11-21T02:31:51;29.33;;;5.68;;
33738;SDS011;20063;51.730;11.110;2023-11-21T02:34:19;24.83;;;4.93;;
33738;SDS011;20063;51.730;11.110;2023-11-21T02:36:45;26.75;;;5.03;;
33738;SDS011;20063;51.730;11.110;2023-11-21T02:39:15;24.85;;;4.90;;
33738;SDS011;20063;51.730;11.110;2023-11-21T02:41:43;33.03;;;5.03;;
33738;SDS011;20063;51.730;11.110;2023-11-21T02:44:09;18.08;;;4.60;;
33738;SDS011;20063;51.730;11.110;2023-11-21T02:46:35;22.48;;;4.40;;
33738;SDS011;20063;51.730;11.110;2023-11-21T02:49:02;23.30;;;4.53;;
33738;SDS011;20063;51.730;11.110;2023-11-21T02:51:29;34.03;;;5.25;;
33738;SDS011;20063;51.730;11.110;2023-11-21T02:53:55;15.68;;;3.15;;
33738;SDS011;20063;51.730;11.110;2023-11-21T02:56:24;18.77;;;3.72;;
33738;SDS011;20063;51.730;11.110;2023-11-21T02:58:50;28.77;;;4.35;;
33738;SDS011;20063;51.730;11.110;2023-11-21T03:01:16;18.85;;;4.47;;
33738;SDS011;20063;51.730;11.110;2023-11-21T03:03:42;32.60;;;5.90;;
33738;SDS011;20063;51.730;11.110;2023-11-21T03:06:08;26.48;;;4.78;;
33738;SDS011;20063;51.730;11.110;2023-11-21T03:08:34;17.55;;;3.63;;
33738;SDS011;20063;51.730;11.110;2023-11-21T03:10:59;30.85;;;4.65;;
33738;SDS011;20063;51.730;11.110;2023-11-21T03:13:25;15.10;;;4.43;;
33738;SDS011;20063;51.730;11.110;2023-11-21T03:15:51;15.07;;;3.78;;
33738;SDS011;20063;51.730;11.110;2023-11-21T03:18:17;35.67;;;6.60;;
33738;SDS011;20063;51.730;11.110;2023-11-21T03:20:45;26.23;;;4.65;;
33738;SDS011;20063;51.730;11.110;2023-11-21T03:23:11;16.67;;;4.53;;
33738;SDS011;20063;51.730;11.110;2023-11-21T03:25:37;37.92;;;4.78;;
33738;SDS011;20063;51.730;11.110;2023-11-21T03:28:02;29.08;;;4.32;;
33738;SDS011;20063;51.730;11.110;2023-11-21T03:30:28;25.75;;;4.25;;
33738;SDS011;20063;51.730;11.110;2023-11-21T03:32:54;23.75;;;4.78;;
33738;SDS011;20063;51.730;11.110;2023-11-21T03:35:20;27.17;;;5.95;;
33738;SDS011;20063;51.730;11.110;2023-11-21T03:37:46;22.77;;;4.97;;
33738;SDS011;20063;51.730;11.110;2023-11-21T03:40:12;32.08;;;5.13;;
33738;SDS011;20063;51.730;11.110;2023-11-21T03:42:38;19.45;;;4.38;;
33738;SDS011;20063;51.730;11.110;2023-11-21T03:45:04;22.35;;;4.40;;
33738;SDS011;20063;51.730;11.110;2023-11-21T03:47:31;23.90;;;5.53;;
33738;SDS011;20063;51.730;11.110;2023-11-21T03:49:57;21.45;;;4.30;;
33738;SDS011;20063;51.730;11.110;2023-11-21T03:52:22;28.52;;;4.65;;
33738;SDS011;20063;51.730;11.110;2023-11-21T03:54:49;19.40;;;4.30;;
33738;SDS011;20063;51.730;11.110;2023-11-21T03:57:14;29.77;;;5.38;;
33738;SDS011;20063;51.730;11.110;2023-11-21T03:59:40;32.47;;;8.23;;
33738;SDS011;20063;51.730;11.110;2023-11-21T04:02:06;31.08;;;4.90;;
33738;SDS011;20063;51.730;11.110;2023-11-21T04:04:32;19.55;;;4.72;;
33738;SDS011;20063;51.730;11.110;2023-11-21T04:06:58;15.32;;;3.47;;
33738;SDS011;20063;51.730;11.110;2023-11-21T04:09:24;15.40;;;4.03;;
33738;SDS011;20063;51.730;11.110;2023-11-21T04:11:50;12.35;;;3.97;;
33738;SDS011;20063;51.730;11.110;2023-11-21T04:14:17;30.25;;;4.78;;
33738;SDS011;20063;51.730;11.110;2023-11-21T04:16:43;37.85;;;7.25;;
33738;SDS011;20063;51.730;11.110;2023-11-21T04:19:08;31.13;;;6.22;;
33738;SDS011;20063;51.730;11.110;2023-11-21T04:21:35;39.80;;;7.75;;
33738;SDS011;20063;51.730;11.110;2023-11-21T04:24:04;22.42;;;5.57;;
33738;SDS011;20063;51.730;11.110;2023-11-21T04:26:30;19.80;;;4.78;;
33738;SDS011;20063;51.730;11.110;2023-11-21T04:28:55;26.92;;;6.57;;
33738;SDS011;20063;51.730;11.110;2023-11-21T04:31:21;27.85;;;6.25;;
33738;SDS011;20063;51.730;11.110;2023-11-21T04:33:46;20.45;;;5.35;;
33738;SDS011;20063;51.730;11.110;2023-11-21T04:36:12;23.20;;;5.30;;
33738;SDS011;20063;51.730;11.110;2023-11-21T04:38:38;28.48;;;5.80;;
33738;SDS011;20063;51.730;11.110;2023-11-21T04:41:04;25.02;;;6.03;;
33738;SDS011;20063;51.730;11.110;2023-11-21T04:43:30;21.90;;;5.50;;
33738;SDS011;20063;51.730;11.110;2023-11-21T04:45:55;23.10;;;5.30;;
33738;SDS011;20063;51.730;11.110;2023-11-21T04:48:22;29.63;;;5.93;;
33738;SDS011;20063;51.730;11.110;2023-11-21T04:50:48;30.30;;;5.38;;
33738;SDS011;20063;51.730;11.110;2023-11-21T04:53:13;25.40;;;6.68;;
33738;SDS011;20063;51.730;11.110;2023-11-21T04:55:39;27.40;;;7.40;;
33738;SDS011;20063;51.730;11.110;2023-11-21T04:58:05;24.00;;;5.55;;
33738;SDS011;20063;51.730;11.110;2023-11-21T05:00:34;31.83;;;6.88;;
33738;SDS011;20063;51.730;11.110;2023-11-21T05:03:01;22.88;;;5.95;;
33738;SDS011;20063;51.730;11.110;2023-11-21T05:05:28;34.20;;;6.93;;
33738;SDS011;20063;51.730;11.110;2023-11-21T05:07:54;34.65;;;7.50;;
33738;SDS011;20063;51.730;11.110;2023-11-21T05:10:20;33.22;;;7.70;;
33738;SDS011;20063;51.730;11.110;2023-11-21T05:12:47;31.80;;;8.40;;
33738;SDS011;20063;51.730;11.110;2023-11-21T05:15:15;31.10;;;8.68;;
33738;SDS011;20063;51.730;11.110;2023-11-21T05:17:42;32.50;;;8.02;;
33738;SDS011;20063;51.730;11.110;2023-11-21T05:20:12;24.73;;;7.75;;
33738;SDS011;20063;51.730;11.110;2023-11-21T05:22:39;39.55;;;8.60;;
33738;SDS011;20063;51.730;11.110;2023-11-21T05:25:05;16.08;;;6.65;;
33738;SDS011;20063;51.730;11.110;2023-11-21T05:27:37;20.08;;;6.75;;
33738;SDS011;20063;51.730;11.110;2023-11-21T05:30:03;24.40;;;6.25;;
33738;SDS011;20063;51.730;11.110;2023-11-21T05:32:37;23.45;;;6.57;;
33738;SDS011;20063;51.730;11.110;2023-11-21T05:35:03;14.95;;;5.95;;
33738;SDS011;20063;51.730;11.110;2023-11-21T05:37:34;21.98;;;6.68;;
33738;SDS011;20063;51.730;11.110;2023-11-21T05:40:01;24.83;;;8.02;;
33738;SDS011;20063;51.730;11.110;2023-11-21T05:42:31;34.15;;;8.18;;
33738;SDS011;20063;51.730;11.110;2023-11-21T05:44:57;28.38;;;8.18;;
33738;SDS011;20063;51.730;11.110;2023-11-21T05:47:24;26.02;;;7.97;;
33738;SDS011;20063;51.730;11.110;2023-11-21T05:49:54;27.88;;;8.75;;
33738;SDS011;20063;51.730;11.110;2023-11-21T05:52:19;30.15;;;8.10;;
33738;SDS011;20063;51.730;11.110;2023-11-21T05:54:46;33.35;;;8.65;;
33738;SDS011;20063;51.730;11.110;2023-11-21T05:57:12;33.85;;;8.40;;
33738;SDS011;20063;51.730;11.110;2023-11-21T05:59:37;26.05;;;9.27;;
33738;SDS011;20063;51.730;11.110;2023-11-21T06:02:03;33.30;;;8.98;;
33738;SDS011;20063;51.730;11.110;2023-11-21T06:04:30;32.55;;;9.55;;
33738;SDS011;20063;51.730;11.110;2023-11-21T06:06:56;35.72;;;8.88;;
33738;SDS011;20063;51.730;11.110;2023-11-21T06:09:21;31.10;;;9.27;;
33738;SDS011;20063;51.730;11.110;2023-11-21T06:11:47;31.33;;;10.68;;
33738;SDS011;20063;51.730;11.110;2023-11-21T06:14:13;29.95;;;9.00;;
33738;SDS011;20063;51.730;11.110;2023-11-21T06:16:42;28.65;;;8.38;;
33738;SDS011;20063;51.730;11.110;2023-11-21T06:19:10;19.83;;;7.40;;
33738;SDS011;20063;51.730;11.110;2023-11-21T06:21:35;36.83;;;9.25;;
33738;SDS011;20063;51.730;11.110;2023-11-21T06:24:01;26.13;;;8.73;;
33738;SDS011;20063;51.730;11.110;2023-11-21T06:26:27;42.63;;;13.63;;
33738;SDS011;20063;51.730;11.110;2023-11-21T06:28:53;32.70;;;12.82;;
33738;SDS011;20063;51.730;11.110;2023-11-21T06:31:19;31.27;;;12.93;;
33738;SDS011;20063;51.730;11.110;2023-11-21T06:33:44;46.28;;;12.85;;
33738;SDS011;20063;51.730;11.110;2023-11-21T06:36:10;41.40;;;13.18;;
33738;SDS011;20063;51.730;11.110;2023-11-21T06:38:36;39.17;;;15.35;;
33738;SDS011;20063;51.730;11.110;2023-11-21T06:41:02;39.17;;;15.35;;
33738;SDS011;20063;51.730;11.110;2023-11-21T06:43:29;30.13;;;13.50;;
33738;SDS011;20063;51.730;11.110;2023-11-21T06:45:56;38.92;;;16.17;;
33738;SDS011;20063;51.730;11.110;2023-11-21T06:48:22;44.17;;;15.85;;
33738;SDS011;20063;51.730;11.110;2023-11-21T06:50:47;32.30;;;16.17;;
33738;SDS011;20063;51.730;11.110;2023-11-21T06:53:13;44.55;;;17.65;;
33738;SDS011;20063;51.730;11.110;2023-11-21T06:55:39;38.67;;;16.77;;
33738;SDS011;20063;51.730;11.110;2023-11-21T06:58:05;44.13;;;18.50;;
33738;SDS011;20063;51.730;11.110;2023-11-21T07:00:34;50.50;;;20.38;;
33738;SDS011;20063;51.730;11.110;2023-11-21T07:02:59;64.53;;;20.27;;
33738;SDS011;20063;51.730;11.110;2023-11-21T07:05:25;50.22;;;20.90;;
33738;SDS011;20063;51.730;11.110;2023-11-21T07:07:51;47.60;;;19.05;;
33738;SDS011;20063;51.730;11.110;2023-11-21T07:10:19;52.33;;;22.05;;
33738;SDS011;20063;51.730;11.110;2023-11-21T07:12:44;44.47;;;20.55;;
33738;SDS011;20063;51.730;11.110;2023-11-21T07:15:10;49.30;;;17.85;;
33738;SDS011;20063;51.730;11.110;2023-11-21T07:17:35;59.08;;;23.50;;
33738;SDS011;20063;51.730;11.110;2023-11-21T07:20:03;52.22;;;19.60;;
33738;SDS011;20063;51.730;11.110;2023-11-21T07:22:29;51.58;;;19.17;;
33738;SDS011;20063;51.730;11.110;2023-11-21T07:24:55;34.60;;;17.25;;
33738;SDS011;20063;51.730;11.110;2023-11-21T07:27:21;49.60;;;19.20;;
33738;SDS011;20063;51.730;11.110;2023-11-21T07:29:47;40.92;;;17.45;;
33738;SDS011;20063;51.730;11.110;2023-11-21T07:32:13;42.80;;;18.50;;
33738;SDS011;20063;51.730;11.110;2023-11-21T07:34:39;39.60;;;18.73;;
33738;SDS011;20063;51.730;11.110;2023-11-21T07:37:07;44.97;;;20.50;;
33738;SDS011;20063;51.730;11.110;2023-11-21T07:39:34;36.45;;;16.77;;
33738;SDS011;20063;51.730;11.110;2023-11-21T07:42:01;23.45;;;13.95;;
33738;SDS011;20063;51.730;11.110;2023-11-21T07:44:27;21.58;;;12.48;;
33738;SDS011;20063;51.730;11.110;2023-11-21T07:46:54;26.38;;;13.75;;
33738;SDS011;20063;51.730;11.110;2023-11-21T07:49:22;29.30;;;16.10;;
33738;SDS011;20063;51.730;11.110;2023-11-21T07:51:49;30.90;;;15.02;;
33738;SDS011;20063;51.730;11.110;2023-11-21T07:54:14;28.08;;;14.60;;
33738;SDS011;20063;51.730;11.110;2023-11-21T07:56:41;23.23;;;12.80;;
33738;SDS011;20063;51.730;11.110;2023-11-21T07:59:07;33.58;;;16.38;;
33738;SDS011;20063;51.730;11.110;2023-11-21T08:01:33;23.80;;;12.27;;
33738;SDS011;20063;51.730;11.110;2023-11-21T08:03:58;24.73;;;14.65;;
33738;SDS011;20063;51.730;11.110;2023-11-21T08:06:28;22.67;;;13.25;;
33738;SDS011;20063;51.730;11.110;2023-11-21T08:08:57;23.08;;;14.27;;
33738;SDS011;20063;51.730;11.110;2023-11-21T08:11:22;25.17;;;14.77;;
33738;SDS011;20063;51.730;11.110;2023-11-21T08:13:48;22.77;;;12.32;;
33738;SDS011;20063;51.730;11.110;2023-11-21T08:16:14;25.30;;;14.50;;
33738;SDS011;20063;51.730;11.110;2023-11-21T08:18:39;34.90;;;16.60;;
33738;SDS011;20063;51.730;11.110;2023-11-21T08:21:06;27.63;;;13.93;;
33738;SDS011;20063;51.730;11.110;2023-11-21T08:23:32;10.52;;;6.57;;
33738;SDS011;20063;51.730;11.110;2023-11-21T08:25:59;7.80;;;5.43;;
33738;SDS011;20063;51.730;11.110;2023-11-21T08:28:24;4.65;;;3.95;;
33738;SDS011;20063;51.730;11.110;2023-11-21T08:30:53;21.20;;;5.57;;
33738;SDS011;20063;51.730;11.110;2023-11-21T08:33:22;7.68;;;5.93;;
33738;SDS011;20063;51.730;11.110;2023-11-21T08:35:48;8.57;;;6.35;;
33738;SDS011;20063;51.730;11.110;2023-11-21T08:38:14;12.15;;;8.63;;
33738;SDS011;20063;51.730;11.110;2023-11-21T08:40:39;10.85;;;7.20;;
33738;SDS011;20063;51.730;11.110;2023-11-21T08:43:08;11.23;;;8.07;;
33738;SDS011;20063;51.730;11.110;2023-11-21T08:45:34;11.43;;;8.00;;
33738;SDS011;20063;51.730;11.110;2023-11-21T08:48:00;12.65;;;8.65;;
33738;SDS011;20063;51.730;11.110;2023-11-21T08:50:26;12.30;;;8.10;;
33738;SDS011;20063;51.730;11.110;2023-11-21T08:52:53;12.82;;;7.32;;
33738;SDS011;20063;51.730;11.110;2023-11-21T08:55:18;12.55;;;8.82;;
33738;SDS011;20063;51.730;11.110;2023-11-21T08:57:45;11.93;;;8.85;;
33738;SDS011;20063;51.730;11.110;2023-11-21T09:00:12;13.43;;;9.60;;
33738;SDS011;20063;51.730;11.110;2023-11-21T09:02:40;19.10;;;9.55;;
33738;SDS011;20063;51.730;11.110;2023-11-21T09:05:07;11.18;;;8.07;;
33738;SDS011;20063;51.730;11.110;2023-11-21T09:07:34;15.45;;;9.63;;
33738;SDS011;20063;51.730;11.110;2023-11-21T09:10:00;12.50;;;8.40;;
33738;SDS011;20063;51.730;11.110;2023-11-21T09:12:27;30.13;;;9.32;;
33738;SDS011;20063;51.730;11.110;2023-11-21T09:14:53;15.02;;;9.82;;
33738;SDS011;20063;51.730;11.110;2023-11-21T09:17:18;19.98;;;11.48;;
33738;SDS011;20063;51.730;11.110;2023-11-21T09:19:44;27.30;;;14.88;;
33738;SDS011;20063;51.730;11.110;2023-11-21T09:22:16;27.45;;;15.35;;
33738;SDS011;20063;51.730;11.110;2023-11-21T09:24:42;25.02;;;14.82;;
33738;SDS011;20063;51.730;11.110;2023-11-21T09:27:08;29.27;;;16.73;;
33738;SDS011;20063;51.730;11.110;2023-11-21T09:29:34;27.92;;;17.13;;
33738;SDS011;20063;51.730;11.110;2023-11-21T09:32:01;33.28;;;15.80;;
33738;SDS011;20063;51.730;11.110;2023-11-21T09:34:28;29.48;;;17.02;;
33738;SDS011;20063;51.730;11.110;2023-11-21T09:36:53;35.55;;;17.40;;
33738;SDS011;20063;51.730;11.110;2023-11-21T09:39:19;29.58;;;15.70;;
33738;SDS011;20063;51.730;11.110;2023-11-21T09:41:51;31.67;;;17.95;;
33738;SDS011;20063;51.730;11.110;2023-11-21T09:44:32;27.75;;;15.27;;
33738;SDS011;20063;51.730;11.110;2023-11-21T09:47:02;27.25;;;15.30;;
33738;SDS011;20063;51.730;11.110;2023-11-21T09:49:28;28.23;;;16.35;;
33738;SDS011;20063;51.730;11.110;2023-11-21T09:51:59;25.83;;;15.52;;
33738;SDS011;20063;51.730;11.110;2023-11-21T09:54:28;24.88;;;14.70;;
33738;SDS011;20063;51.730;11.110;2023-11-21T09:56:57;23.60;;;14.55;;
33738;SDS011;20063;51.730;11.110;2023-11-21T09:59:25;23.08;;;14.38;;
33738;SDS011;20063;51.730;11.110;2023-11-21T10:01:56;24.88;;;14.55;;
33738;SDS011;20063;51.730;11.110;2023-11-21T10:04:27;22.85;;;13.50;;
33738;SDS011;20063;51.730;11.110;2023-11-21T10:06:53;27.42;;;17.10;;
33738;SDS011;20063;51.730;11.110;2023-11-21T10:09:26;29.88;;;17.10;;
33738;SDS011;20063;51.730;11.110;2023-11-21T10:11:53;25.75;;;15.85;;
33738;SDS011;20063;51.730;11.110;2023-11-21T10:14:19;28.35;;;16.00;;
33738;SDS011;20063;51.730;11.110;2023-11-21T10:16:49;26.90;;;17.65;;
33738;SDS011;20063;51.730;11.110;2023-11-21T10:19:15;35.30;;;20.17;;
33738;SDS011;20063;51.730;11.110;2023-11-21T10:21:43;33.50;;;20.45;;
33738;SDS011;20063;51.730;11.110;2023-11-21T10:24:09;36.90;;;21.55;;
33738;SDS011;20063;51.730;11.110;2023-11-21T10:26:34;32.97;;;21.25;;
33738;SDS011;20063;51.730;11.110;2023-11-21T10:29:02;34.63;;;20.52;;
33738;SDS011;20063;51.730;11.110;2023-11-21T10:31:31;33.17;;;19.38;;
33738;SDS011;20063;51.730;11.110;2023-11-21T10:36:45;39.67;;;21.48;;
33738;SDS011;20063;51.730;11.110;2023-11-21T10:39:16;33.35;;;19.27;;
33738;SDS011;20063;51.730;11.110;2023-11-21T10:41:47;34.33;;;18.73;;
33738;SDS011;20063;51.730;11.110;2023-11-21T10:44:14;32.88;;;18.85;;
33738;SDS011;20063;51.730;11.110;2023-11-21T10:46:46;31.80;;;19.20;;
33738;SDS011;20063;51.730;11.110;2023-11-21T10:49:30;29.80;;;17.23;;
33738;SDS011;20063;51.730;11.110;2023-11-21T10:51:56;28.60;;;17.15;;
33738;SDS011;20063;51.730;11.110;2023-11-21T10:54:23;26.48;;;16.85;;
33738;SDS011;20063;51.730;11.110;2023-11-21T10:56:51;30.20;;;17.40;;
33738;SDS011;20063;51.730;11.110;2023-11-21T10:59:22;35.97;;;18.58;;
33738;SDS011;20063;51.730;11.110;2023-11-21T11:01:53;31.90;;;18.20;;
33738;SDS011;20063;51.730;11.110;2023-11-21T11:04:24;28.70;;;17.08;;
33738;SDS011;20063;51.730;11.110;2023-11-21T11:06:56;33.80;;;17.83;;
33738;SDS011;20063;51.730;11.110;2023-11-21T11:09:28;28.63;;;17.27;;
33738;SDS011;20063;51.730;11.110;2023-11-21T11:11:55;27.92;;;17.30;;
33738;SDS011;20063;51.730;11.110;2023-11-21T11:14:22;26.10;;;16.80;;
33738;SDS011;20063;51.730;11.110;2023-11-21T11:16:52;28.73;;;17.63;;
33738;SDS011;20063;51.730;11.110;2023-11-21T11:19:19;29.58;;;17.23;;
33738;SDS011;20063;51.730;11.110;2023-11-21T11:21:49;28.35;;;18.25;;
33738;SDS011;20063;51.730;11.110;2023-11-21T11:27:22;23.27;;;15.02;;
33738;SDS011;20063;51.730;11.110;2023-11-21T11:30:02;28.08;;;17.38;;
33738;SDS011;20063;51.730;11.110;2023-11-21T11:32:43;28.80;;;16.73;;
33738;SDS011;20063;51.730;11.110;2023-11-21T11:38:02;28.35;;;15.10;;
33738;SDS011;20063;51.730;11.110;2023-11-21T11:40:41;24.50;;;14.95;;
33738;SDS011;20063;51.730;11.110;2023-11-21T11:43:11;29.55;;;17.05;;
33738;SDS011;20063;51.730;11.110;2023-11-21T11:45:37;26.80;;;16.58;;
33738;SDS011;20063;51.730;11.110;2023-11-21T11:48:07;26.75;;;15.20;;
33738;SDS011;20063;51.730;11.110;2023-11-21T11:50:33;31.35;;;16.85;;
33738;SDS011;20063;51.730;11.110;2023-11-21T11:53:12;36.85;;;16.60;;
33738;SDS011;20063;51.730;11.110;2023-11-21T11:55:39;23.30;;;14.57;;
33738;SDS011;20063;51.730;11.110;2023-11-21T11:58:08;26.55;;;15.95;;
33738;SDS011;20063;51.730;11.110;2023-11-21T12:00:34;22.65;;;14.48;;
33738;SDS011;20063;51.730;11.110;2023-11-21T12:03:05;25.35;;;13.90;;
33738;SDS011;20063;51.730;11.110;2023-11-21T12:05:33;23.85;;;15.05;;
33738;SDS011;20063;51.730;11.110;2023-11-21T12:08:01;23.70;;;15.02;;
33738;SDS011;20063;51.730;11.110;2023-11-21T12:10:29;23.15;;;13.48;;
33738;SDS011;20063;51.730;11.110;2023-11-21T12:12:57;22.75;;;13.88;;
33738;SDS011;20063;51.730;11.110;2023-11-21T12:15:24;21.50;;;14.38;;
33738;SDS011;20063;51.730;11.110;2023-11-21T12:17:51;21.90;;;13.00;;
33738;SDS011;20063;51.730;11.110;2023-11-21T12:20:24;26.20;;;15.85;;
33738;SDS011;20063;51.730;11.110;2023-11-21T12:22:50;21.63;;;13.23;;
33738;SDS011;20063;51.730;11.110;2023-11-21T12:25:24;22.70;;;13.45;;
33738;SDS011;20063;51.730;11.110;2023-11-21T12:27:54;18.70;;;12.32;;
33738;SDS011;20063;51.730;11.110;2023-11-21T12:30:22;23.30;;;13.02;;
33738;SDS011;20063;51.730;11.110;2023-11-21T12:32:49;19.25;;;13.38;;
33738;SDS011;20063;51.730;11.110;2023-11-21T12:35:19;19.63;;;12.75;;
33738;SDS011;20063;51.730;11.110;2023-11-21T12:37:46;23.23;;;13.40;;
33738;SDS011;20063;51.730;11.110;2023-11-21T12:40:13;22.52;;;13.20;;
33738;SDS011;20063;51.730;11.110;2023-11-21T12:42:44;21.25;;;13.60;;
33738;SDS011;20063;51.730;11.110;2023-11-21T12:45:24;25.75;;;13.85;;
33738;SDS011;20063;51.730;11.110;2023-11-21T12:47:52;23.80;;;13.32;;
33738;SDS011;20063;51.730;11.110;2023-11-21T12:50:22;23.10;;;12.93;;
33738;SDS011;20063;51.730;11.110;2023-11-21T12:52:51;26.73;;;14.63;;
33738;SDS011;20063;51.730;11.110;2023-11-21T12:55:19;27.20;;;14.80;;
33738;SDS011;20063;51.730;11.110;2023-11-21T12:57:49;20.60;;;14.15;;
33738;SDS011;20063;51.730;11.110;2023-11-21T13:00:16;24.88;;;17.23;;
33738;SDS011;20063;51.730;11.110;2023-11-21T13:02:57;26.15;;;13.90;;
33738;SDS011;20063;51.730;11.110;2023-11-21T13:05:33;21.00;;;12.88;;
33738;SDS011;20063;51.730;11.110;2023-11-21T13:08:01;22.88;;;13.18;;
33738;SDS011;20063;51.730;11.110;2023-11-21T13:10:28;23.60;;;13.38;;
33738;SDS011;20063;51.730;11.110;2023-11-21T13:12:59;24.17;;;12.52;;
33738;SDS011;20063;51.730;11.110;2023-11-21T13:15:29;17.45;;;11.52;;
33738;SDS011;20063;51.730;11.110;2023-11-21T13:17:56;17.45;;;12.18;;
33738;SDS011;20063;51.730;11.110;2023-11-21T13:20:25;22.70;;;12.63;;
33738;SDS011;20063;51.730;11.110;2023-11-21T13:22:52;21.25;;;12.80;;
33738;SDS011;20063;51.730;11.110;2023-11-21T13:25:26;21.13;;;11.73;;
33738;SDS011;20063;51.730;11.110;2023-11-21T13:27:55;16.00;;;10.32;;
33738;SDS011;20063;51.730;11.110;2023-11-21T13:30:22;18.48;;;10.68;;
33738;SDS011;20063;51.730;11.110;2023-11-21T13:32:51;17.08;;;10.57;;
33738;SDS011;20063;51.730;11.110;2023-11-21T13:35:18;19.35;;;10.82;;
33738;SDS011;20063;51.730;11.110;2023-11-21T13:37:55;16.55;;;10.30;;
33738;SDS011;20063;51.730;11.110;2023-11-21T13:40:25;14.82;;;9.50;;
33738;SDS011;20063;51.730;11.110;2023-11-21T13:42:53;16.55;;;10.45;;
33738;SDS011;20063;51.730;11.110;2023-11-21T13:45:22;20.58;;;11.95;;
33738;SDS011;20063;51.730;11.110;2023-11-21T13:47:51;19.45;;;12.00;;
33738;SDS011;20063;51.730;11.110;2023-11-21T13:50:20;17.25;;;9.57;;
33738;SDS011;20063;51.730;11.110;2023-11-21T13:52:52;14.25;;;9.43;;
33738;SDS011;20063;51.730;11.110;2023-11-21T13:55:18;15.80;;;10.10;;
33738;SDS011;20063;51.730;11.110;2023-11-21T13:57:44;13.68;;;9.40;;
33738;SDS011;20063;51.730;11.110;2023-11-21T14:00:14;19.08;;;9.65;;
33738;SDS011;20063;51.730;11.110;2023-11-21T14:03:02;20.40;;;9.32;;
33738;SDS011;20063;51.730;11.110;2023-11-21T14:05:33;15.15;;;10.13;;
33738;SDS011;20063;51.730;11.110;2023-11-21T14:07:59;17.55;;;9.68;;
33738;SDS011;20063;51.730;11.110;2023-11-21T14:10:30;14.55;;;10.10;;
33738;SDS011;20063;51.730;11.110;2023-11-21T14:13:10;15.82;;;10.40;;
33738;SDS011;20063;51.730;11.110;2023-11-21T14:15:40;18.02;;;8.98;;
33738;SDS011;20063;51.730;11.110;2023-11-21T14:18:11;16.45;;;9.80;;
33738;SDS011;20063;51.730;11.110;2023-11-21T14:20:39;15.48;;;9.52;;
33738;SDS011;20063;51.730;11.110;2023-11-21T14:23:06;15.15;;;9.05;;
33738;SDS011;20063;51.730;11.110;2023-11-21T14:25:36;19.75;;;10.75;;
33738;SDS011;20063;51.730;11.110;2023-11-21T14:28:04;16.13;;;10.43;;